Time;durP1;ratioP1;P1;durP2;ratioP2;P2;SDS_P1;SDS_P2;PMS_P1;PMS_P2;Temp;Humidity;BMP_temperature;BMP_pressure;BME280_temperature;BME280_humidity;BME280_pressure;Samples;Min_cycle;Max_cycle;Signal;HPM_P1;HPM_P2
2022/07/11 00:00:15;;;;;;;6.72;6.30;;;;;;;-141.48;100.00;69781.59;4972209;29;20492;-64
2022/07/11 00:02:46;;;;;;;9.15;8.55;;;;;;;-141.48;100.00;69781.59;4972243;29;20088;-64
2022/07/11 00:05:16;;;;;;;7.75;7.20;;;;;;;-141.48;100.00;69781.59;4971726;29;20026;-64
2022/07/11 00:07:47;;;;;;;8.35;7.68;;;;;;;-141.48;100.00;69781.59;4971951;29;20031;-65
2022/07/11 00:10:17;;;;;;;9.25;8.25;;;;;;;-141.48;100.00;69781.59;4972367;29;20030;-64
2022/07/11 00:12:48;;;;;;;11.45;10.30;;;;;;;-141.48;100.00;69781.59;4972151;29;20476;-65
2022/07/11 00:15:18;;;;;;;8.40;7.65;;;;;;;-141.48;100.00;69781.59;4955385;29;20038;-65
2022/07/11 00:17:49;;;;;;;9.15;8.35;;;;;;;-141.48;100.00;69781.59;4971728;29;20026;-65
2022/07/11 00:20:19;;;;;;;9.05;8.30;;;;;;;-141.48;100.00;69781.59;4972161;29;20429;-64
2022/07/11 00:22:50;;;;;;;11.02;9.35;;;;;;;-141.48;100.00;69781.59;4972173;29;20045;-64
2022/07/11 00:25:21;;;;;;;10.27;9.38;;;;;;;-141.48;100.00;69781.59;4971542;29;20411;-65
2022/07/11 00:27:51;;;;;;;9.88;8.98;;;;;;;-141.48;100.00;69781.59;4971952;29;20110;-65
2022/07/11 00:30:21;;;;;;;9.98;9.20;;;;;;;-141.48;100.00;69781.59;4971644;29;20026;-65
2022/07/11 00:32:52;;;;;;;11.20;10.30;;;;;;;-141.48;100.00;69781.59;4972024;29;20395;-65
2022/07/11 00:35:22;;;;;;;10.90;8.48;;;;;;;-141.48;100.00;69781.59;4971256;29;20131;-65
2022/07/11 00:37:53;;;;;;;11.55;10.68;;;;;;;-141.48;100.00;69781.59;4971493;29;20027;-65
2022/07/11 00:40:23;;;;;;;9.60;8.90;;;;;;;-141.48;100.00;69781.59;4971709;29;20464;-66
2022/07/11 00:42:54;;;;;;;8.55;7.93;;;;;;;-141.48;100.00;69781.59;4971367;29;20041;-65
2022/07/11 00:45:24;;;;;;;9.73;9.02;;;;;;;-141.48;100.00;69781.59;4955052;29;20111;-65
2022/07/11 00:47:56;;;;;;;18.77;10.13;;;;;;;-141.48;100.00;69781.59;4971445;29;20043;-65
2022/07/11 00:50:27;;;;;;;9.35;8.65;;;;;;;-141.48;100.00;69781.59;4971371;29;20412;-65
2022/07/11 00:52:57;;;;;;;10.82;9.93;;;;;;;-141.48;100.00;69781.59;4971274;29;20031;-65
2022/07/11 00:55:28;;;;;;;9.73;8.93;;;;;;;-141.48;100.00;69781.59;4954435;29;20035;-65
2022/07/11 00:57:59;;;;;;;10.10;9.30;;;;;;;-141.48;100.00;69781.59;4971271;29;20027;-65
2022/07/11 01:00:29;;;;;;;13.75;10.00;;;;;;;-141.48;100.00;69781.59;4971238;29;20041;-65
2022/07/11 01:03:00;;;;;;;10.75;9.45;;;;;;;-141.48;100.00;69781.59;4971429;29;20397;-66
2022/07/11 01:05:31;;;;;;;9.75;8.57;;;;;;;-141.48;100.00;69781.59;4970577;29;20035;-65
2022/07/11 01:08:01;;;;;;;11.98;9.55;;;;;;;-141.48;100.00;69781.59;4955095;29;20030;-66
2022/07/11 01:10:32;;;;;;;9.57;8.88;;;;;;;-141.48;100.00;69781.59;4970752;29;20087;-66
2022/07/11 01:13:03;;;;;;;13.90;9.60;;;;;;;-141.48;100.00;69781.59;4971150;29;20030;-67
2022/07/11 01:15:36;;;;;;;16.15;11.60;;;;;;;-141.48;100.00;69781.59;4970626;29;20023;-66
2022/07/11 01:18:06;;;;;;;10.57;9.50;;;;;;;-141.48;100.00;69781.59;4954454;29;20062;-65
2022/07/11 01:20:37;;;;;;;13.07;12.00;;;;;;;-141.48;100.00;69781.59;4954402;29;20061;-66
2022/07/11 01:23:07;;;;;;;11.73;10.27;;;;;;;-141.48;100.00;69781.59;4970664;29;20035;-65
2022/07/11 01:25:38;;;;;;;11.77;10.85;;;;;;;-141.48;100.00;69781.59;4970254;29;20392;-66
2022/07/11 01:28:08;;;;;;;9.55;8.85;;;;;;;-141.48;100.00;69781.59;4970675;29;20451;-64
2022/07/11 01:30:39;;;;;;;9.00;8.40;;;;;;;-141.48;100.00;69781.59;4970580;29;20500;-66
2022/07/11 01:33:09;;;;;;;11.38;10.52;;;;;;;-141.48;100.00;69781.59;4954267;29;20087;-66
2022/07/11 01:35:41;;;;;;;11.95;11.02;;;;;;;-141.48;100.00;69781.59;4970104;29;20443;-65
2022/07/11 01:38:11;;;;;;;12.00;10.98;;;;;;;-141.48;100.00;69781.59;4970869;29;20026;-66
2022/07/11 01:40:41;;;;;;;11.20;10.18;;;;;;;-141.48;100.00;69781.59;4970288;29;20126;-66
2022/07/11 01:43:12;;;;;;;10.70;9.82;;;;;;;-141.48;100.00;69781.59;4970116;29;20082;-66
2022/07/11 01:45:42;;;;;;;11.38;10.23;;;;;;;-141.48;100.00;69781.59;4970055;29;20027;-65
2022/07/11 01:48:13;;;;;;;15.13;13.25;;;;;;;-141.48;100.00;69781.59;4970204;29;20035;-65
2022/07/11 01:50:43;;;;;;;13.65;12.65;;;;;;;-141.48;100.00;69781.59;4969811;29;20580;-65
2022/07/11 01:53:15;;;;;;;13.85;12.68;;;;;;;-141.48;100.00;69781.59;4969907;29;20038;-66
2022/07/11 01:55:45;;;;;;;15.05;12.23;;;;;;;-141.48;100.00;69781.59;4969785;29;20035;-66
2022/07/11 01:58:16;;;;;;;15.45;14.05;;;;;;;-141.48;100.00;69781.59;4954011;29;20131;-66
2022/07/11 02:00:47;;;;;;;16.60;14.88;;;;;;;-141.48;100.00;69781.59;4970252;29;20022;-65
2022/07/11 02:03:17;;;;;;;17.00;15.38;;;;;;;-141.48;100.00;69781.59;4970141;29;20041;-65
2022/07/11 02:05:47;;;;;;;14.68;13.70;;;;;;;-141.48;100.00;69781.59;4953663;29;20031;-66
2022/07/11 02:08:18;;;;;;;16.83;15.15;;;;;;;-141.48;100.00;69781.59;4970193;29;20056;-67
2022/07/11 02:10:51;;;;;;;18.83;14.90;;;;;;;-141.48;100.00;69781.59;4970025;29;20034;-67
2022/07/11 02:13:23;;;;;;;14.55;13.35;;;;;;;-141.48;100.00;69781.59;4969641;29;20035;-67
2022/07/11 02:15:53;;;;;;;16.05;14.50;;;;;;;-141.48;100.00;69781.59;4969936;29;20438;-67
2022/07/11 02:18:23;;;;;;;15.23;13.77;;;;;;;-141.48;100.00;69781.59;4970067;29;20096;-66
2022/07/11 02:20:55;;;;;;;17.17;15.82;;;;;;;-141.48;100.00;69781.59;4969539;29;20077;-65
2022/07/11 02:23:25;;;;;;;16.83;15.55;;;;;;;-141.48;100.00;69781.59;4969445;29;20034;-66
2022/07/11 02:25:56;;;;;;;15.07;13.68;;;;;;;-141.48;100.00;69781.59;4969661;29;20038;-66
2022/07/11 02:28:26;;;;;;;15.10;13.98;;;;;;;-141.48;100.00;69781.59;4953595;29;20114;-67
2022/07/11 02:30:56;;;;;;;19.80;17.90;;;;;;;-141.48;100.00;69781.59;4953407;29;20254;-65
2022/07/11 02:33:27;;;;;;;16.15;14.65;;;;;;;-141.48;100.00;69781.59;4953099;29;20026;-66
2022/07/11 02:35:57;;;;;;;16.33;14.82;;;;;;;-141.48;100.00;69781.59;4953403;29;20031;-66
2022/07/11 02:38:28;;;;;;;17.95;16.45;;;;;;;-141.48;100.00;69781.59;4969905;29;20114;-66
2022/07/11 02:40:58;;;;;;;17.00;15.45;;;;;;;-141.48;100.00;69781.59;4969757;29;20449;-66
2022/07/11 02:43:29;;;;;;;14.85;13.75;;;;;;;-141.48;100.00;69781.59;4969149;29;20035;-66
2022/07/11 02:46:00;;;;;;;14.90;13.60;;;;;;;-141.48;100.00;69781.59;4969268;29;20508;-66
2022/07/11 02:48:31;;;;;;;14.90;13.57;;;;;;;-141.48;100.00;69781.59;4969353;29;20035;-67
2022/07/11 02:51:02;;;;;;;17.90;16.50;;;;;;;-141.48;100.00;69781.59;4969431;29;20051;-66
2022/07/11 02:53:32;;;;;;;17.23;15.63;;;;;;;-141.48;100.00;69781.59;4968966;29;20248;-65
2022/07/11 02:56:03;;;;;;;20.63;18.55;;;;;;;-141.48;100.00;69781.59;4969294;29;20505;-66
2022/07/11 02:58:33;;;;;;;19.58;17.45;;;;;;;-141.48;100.00;69781.59;4953450;29;20027;-66
2022/07/11 03:01:04;;;;;;;20.25;18.38;;;;;;;-141.48;100.00;69781.59;4969613;29;20030;-66
2022/07/11 03:03:34;;;;;;;21.67;19.83;;;;;;;-141.48;100.00;69781.59;4971275;29;20045;-66
2022/07/11 03:06:04;;;;;;;20.98;19.17;;;;;;;-141.48;100.00;69781.59;4956689;29;20484;-66
2022/07/11 03:08:36;;;;;;;22.70;20.48;;;;;;;-141.48;100.00;69781.59;4972956;29;20063;-65
2022/07/11 03:11:06;;;;;;;21.60;19.73;;;;;;;-141.48;100.00;69781.59;4972823;29;20037;-66
2022/07/11 03:13:36;;;;;;;23.25;21.05;;;;;;;-141.48;100.00;69781.59;4972471;29;20031;-65
2022/07/11 03:16:07;;;;;;;20.70;18.83;;;;;;;-141.48;100.00;69781.59;4973016;29;20826;-66
2022/07/11 03:18:38;;;;;;;20.98;19.27;;;;;;;-141.48;100.00;69781.59;4956686;29;20055;-66
2022/07/11 03:21:08;;;;;;;19.20;17.27;;;;;;;-141.48;100.00;69781.59;4972511;29;20108;-66
2022/07/11 03:23:38;;;;;;;23.70;21.75;;;;;;;-141.48;100.00;69781.59;4955984;29;20103;-70
2022/07/11 03:26:09;;;;;;;21.10;19.40;;;;;;;-141.48;100.00;69781.59;4956450;29;20035;-66
2022/07/11 03:28:39;;;;;;;20.13;18.40;;;;;;;-141.48;100.00;69781.59;4972634;29;20395;-65
2022/07/11 03:31:10;;;;;;;21.38;19.40;;;;;;;-141.48;100.00;69781.59;4972388;29;20035;-66
2022/07/11 03:33:41;;;;;;;19.70;17.75;;;;;;;-141.48;100.00;69781.59;4972175;29;20539;-67
2022/07/11 03:36:11;;;;;;;22.35;20.40;;;;;;;-141.48;100.00;69781.59;4972179;29;20026;-66
2022/07/11 03:38:42;;;;;;;19.85;18.33;;;;;;;-141.48;100.00;69781.59;4972310;29;20035;-65
2022/07/11 03:41:12;;;;;;;20.40;18.65;;;;;;;-141.48;100.00;69781.59;4972463;29;20037;-65
2022/07/11 03:43:43;;;;;;;23.92;21.55;;;;;;;-141.48;100.00;69781.59;4972030;29;20396;-65
2022/07/11 03:46:13;;;;;;;22.73;20.38;;;;;;;-141.48;100.00;69781.59;4971988;29;20027;-66
2022/07/11 03:48:44;;;;;;;21.23;19.40;;;;;;;-141.48;100.00;69781.59;4972150;29;20060;-66
2022/07/11 03:51:16;;;;;;;22.63;20.58;;;;;;;-141.48;100.00;69781.59;4972509;29;20429;-65
2022/07/11 03:53:47;;;;;;;25.33;22.90;;;;;;;-141.48;100.00;69781.59;4956636;29;20121;-66
2022/07/11 03:56:22;;;;;;;23.20;21.00;;;;;;;-141.48;100.00;69781.59;4956868;29;20030;-65
2022/07/11 03:58:52;;;;;;;24.30;21.98;;;;;;;-141.48;100.00;69781.59;4956788;29;20483;-65
2022/07/11 04:01:23;;;;;;;22.90;20.92;;;;;;;-141.48;100.00;69781.59;4956249;29;20031;-64
2022/07/11 04:03:53;;;;;;;22.73;20.52;;;;;;;-141.48;100.00;69781.59;4971792;29;20039;-66
2022/07/11 04:06:24;;;;;;;24.08;22.02;;;;;;;-141.48;100.00;69781.59;4971609;29;20034;-66
2022/07/11 04:08:54;;;;;;;24.80;22.52;;;;;;;-141.48;100.00;69781.59;4972150;29;20041;-66
2022/07/11 04:11:24;;;;;;;23.83;21.88;;;;;;;-141.48;100.00;69781.59;4955724;29;20037;-66
2022/07/11 04:13:55;;;;;;;22.70;20.88;;;;;;;-141.48;100.00;69781.59;4971012;29;20034;-67
2022/07/11 04:16:25;;;;;;;23.63;21.17;;;;;;;-141.48;100.00;69781.59;4971663;29;20022;-66
2022/07/11 04:18:56;;;;;;;22.58;20.75;;;;;;;-141.48;100.00;69781.59;4971589;29;20030;-66
2022/07/11 04:21:26;;;;;;;21.83;19.95;;;;;;;-141.48;100.00;69781.59;4971486;29;20037;-66
2022/07/11 04:23:56;;;;;;;23.05;19.75;;;;;;;-141.48;100.00;69781.59;4971272;29;20042;-66
2022/07/11 04:26:27;;;;;;;22.10;20.15;;;;;;;-141.48;100.00;69781.59;4971616;29;20253;-66
2022/07/11 04:28:57;;;;;;;23.60;21.30;;;;;;;-141.48;100.00;69781.59;4971440;29;20046;-66
2022/07/11 04:31:28;;;;;;;25.65;22.95;;;;;;;-141.48;100.00;69781.59;4971030;29;20034;-66
2022/07/11 04:33:58;;;;;;;24.67;22.38;;;;;;;-141.48;100.00;69781.59;4970289;29;20604;-67
2022/07/11 04:36:28;;;;;;;21.23;19.73;;;;;;;-141.48;100.00;69781.59;4994177;24;20058;-64
2022/07/11 04:38:59;;;;;;;22.48;20.50;;;;;;;-141.48;100.00;69781.59;4971349;29;20088;-64
2022/07/11 04:41:29;;;;;;;20.27;18.50;;;;;;;-141.48;100.00;69781.59;4954972;29;20034;-67
2022/07/11 04:44:00;;;;;;;20.63;18.95;;;;;;;-141.48;100.00;69781.59;4971004;29;20471;-64
2022/07/11 04:46:31;;;;;;;21.33;19.45;;;;;;;-141.48;100.00;69781.59;4970969;29;20026;-64
2022/07/11 04:49:02;;;;;;;20.95;18.98;;;;;;;-141.48;100.00;69781.59;4971162;29;20034;-64
2022/07/11 04:51:32;;;;;;;20.10;18.45;;;;;;;-141.48;100.00;69781.59;4970968;29;20027;-64
2022/07/11 04:54:03;;;;;;;18.60;16.90;;;;;;;-141.48;100.00;69781.59;4970765;29;20037;-64
2022/07/11 04:56:33;;;;;;;19.65;15.68;;;;;;;-141.48;100.00;69781.59;4970980;29;20026;-64
2022/07/11 04:59:04;;;;;;;18.08;16.23;;;;;;;-141.48;100.00;69781.59;4970895;29;20476;-64
2022/07/11 05:01:35;;;;;;;19.95;13.85;;;;;;;-141.48;100.00;69781.59;4971052;29;20519;-64
2022/07/11 05:04:05;;;;;;;17.33;15.88;;;;;;;-141.48;100.00;69781.59;4954202;29;20066;-64
2022/07/11 05:06:36;;;;;;;15.65;14.07;;;;;;;-141.48;100.00;69781.59;4970986;29;20031;-64
2022/07/11 05:09:07;;;;;;;12.80;11.60;;;;;;;-141.48;100.00;69781.59;4970820;29;20038;-64
2022/07/11 05:11:38;;;;;;;15.05;13.70;;;;;;;-141.48;100.00;69781.59;4970696;29;20412;-64
2022/07/11 05:14:08;;;;;;;15.60;14.18;;;;;;;-141.48;100.00;69781.59;4970675;29;20092;-64
2022/07/11 05:16:39;;;;;;;17.00;15.20;;;;;;;-141.48;100.00;69781.59;4970755;29;20034;-64
2022/07/11 05:19:09;;;;;;;17.00;15.43;;;;;;;-141.48;100.00;69781.59;4954131;29;20034;-64
2022/07/11 05:21:39;;;;;;;15.13;14.15;;;;;;;-141.48;100.00;69781.59;4970326;29;20505;-65
2022/07/11 05:24:10;;;;;;;14.48;13.27;;;;;;;-141.48;100.00;69781.59;4970003;29;20165;-64
2022/07/11 05:26:44;;;;;;;16.55;15.07;;;;;;;-141.48;100.00;69781.59;4969910;29;20078;-65
2022/07/11 05:29:14;;;;;;;14.02;13.00;;;;;;;-141.48;100.00;69781.59;4954180;29;20126;-65
2022/07/11 05:31:50;;;;;;;14.93;13.70;;;;;;;-141.48;100.00;69781.59;4970491;29;20105;-65
2022/07/11 05:34:20;;;;;;;16.58;15.05;;;;;;;-141.48;100.00;69781.59;4969564;29;20026;-65
2022/07/11 05:36:50;;;;;;;16.08;14.45;;;;;;;-141.48;100.00;69781.59;4970337;29;20376;-65
2022/07/11 05:39:21;;;;;;;16.38;14.98;;;;;;;-141.48;100.00;69781.59;4970625;29;20026;-65
2022/07/11 05:41:52;;;;;;;21.52;19.48;;;;;;;-141.48;100.00;69781.59;4970370;29;20109;-63
2022/07/11 05:44:22;;;;;;;19.60;17.95;;;;;;;-141.48;100.00;69781.59;4969956;29;20030;-64
2022/07/11 05:46:53;;;;;;;22.70;17.08;;;;;;;-141.48;100.00;69781.59;4970102;29;20027;-64
2022/07/11 05:49:23;;;;;;;21.02;16.38;;;;;;;-141.48;100.00;69781.59;4970270;29;20023;-65
2022/07/11 05:51:54;;;;;;;16.75;15.48;;;;;;;-141.48;100.00;69781.59;4970013;29;20030;-67
2022/07/11 05:54:25;;;;;;;17.20;15.90;;;;;;;-141.48;100.00;69781.59;4969949;29;20472;-66
2022/07/11 05:56:55;;;;;;;17.08;15.73;;;;;;;-141.48;100.00;69781.59;4953629;29;20047;-64
2022/07/11 05:59:26;;;;;;;17.30;15.80;;;;;;;-141.48;100.00;69781.59;4969926;29;20031;-64
2022/07/11 06:01:56;;;;;;;17.25;15.52;;;;;;;-141.48;100.00;69781.59;4970117;29;20105;-64
2022/07/11 06:04:26;;;;;;;21.63;15.35;;;;;;;-141.48;100.00;69781.59;4969565;29;20029;-64
2022/07/11 06:06:57;;;;;;;16.60;15.27;;;;;;;-141.48;100.00;69781.59;4970158;29;20023;-65
2022/07/11 06:09:27;;;;;;;15.55;14.30;;;;;;;-141.48;100.00;69781.59;4970115;29;20488;-64
2022/07/11 06:11:58;;;;;;;16.50;15.00;;;;;;;-141.48;100.00;69781.59;4970050;29;20023;-64
2022/07/11 06:14:28;;;;;;;17.08;15.68;;;;;;;-141.48;100.00;69781.59;4969498;29;20452;-64
2022/07/11 06:16:59;;;;;;;17.50;13.43;;;;;;;-141.48;100.00;69781.59;4953804;29;20091;-65
2022/07/11 06:19:29;;;;;;;16.90;15.27;;;;;;;-141.48;100.00;69781.59;4953900;29;20031;-66
2022/07/11 06:22:00;;;;;;;15.63;14.18;;;;;;;-141.48;100.00;69781.59;4969956;29;20035;-66
2022/07/11 06:24:30;;;;;;;14.55;13.02;;;;;;;-141.48;100.00;69781.59;4969309;29;20039;-65
2022/07/11 06:27:01;;;;;;;16.02;14.70;;;;;;;-141.48;100.00;69781.59;4970645;29;20109;-66
2022/07/11 06:29:31;;;;;;;21.25;15.38;;;;;;;-141.48;100.00;69781.59;4970679;29;20050;-65
2022/07/11 06:32:02;;;;;;;14.45;13.07;;;;;;;-141.48;100.00;69781.59;4971599;29;20443;-66
2022/07/11 06:34:33;;;;;;;14.27;12.55;;;;;;;-141.48;100.00;69781.59;4971539;29;20129;-66
2022/07/11 06:37:04;;;;;;;13.82;12.25;;;;;;;-141.48;100.00;69781.59;4973656;29;20027;-66
2022/07/11 06:39:34;;;;;;;12.38;11.27;;;;;;;-141.48;100.00;69781.59;4977360;29;20051;-66
2022/07/11 06:42:05;;;;;;;15.02;13.77;;;;;;;-141.48;100.00;69781.59;4977433;29;20068;-65
2022/07/11 06:44:35;;;;;;;11.50;10.52;;;;;;;-141.48;100.00;69781.59;4977195;29;20034;-64
2022/07/11 06:47:06;;;;;;;17.40;10.25;;;;;;;-141.48;100.00;69781.59;4977204;29;20547;-64
2022/07/11 06:49:37;;;;;;;11.07;10.38;;;;;;;-141.48;100.00;69781.59;4960468;29;20034;-66
2022/07/11 06:52:08;;;;;;;11.82;10.93;;;;;;;-141.48;100.00;69781.59;4976651;29;20046;-63
2022/07/11 06:54:38;;;;;;;11.27;10.23;;;;;;;-141.48;100.00;69781.59;4977018;29;20026;-63
2022/07/11 06:57:08;;;;;;;14.95;10.75;;;;;;;-141.48;100.00;69781.59;4977292;29;20023;-66
2022/07/11 06:59:39;;;;;;;12.23;11.27;;;;;;;-141.48;100.00;69781.59;4977190;29;20104;-65
2022/07/11 07:02:09;;;;;;;14.10;13.00;;;;;;;-141.48;100.00;69781.59;4960697;29;20042;-65
2022/07/11 07:04:40;;;;;;;15.75;14.55;;;;;;;-141.48;100.00;69781.59;4976767;29;20031;-66
2022/07/11 07:07:10;;;;;;;18.30;14.43;;;;;;;-141.48;100.00;69781.59;4977254;29;20041;-66
2022/07/11 07:09:41;;;;;;;13.93;12.57;;;;;;;-141.48;100.00;69781.59;4976521;29;20451;-66
2022/07/11 07:12:11;;;;;;;19.88;13.77;;;;;;;-141.48;100.00;69781.59;4977214;29;20046;-65
2022/07/11 07:14:42;;;;;;;15.77;14.25;;;;;;;-141.48;100.00;69781.59;4960159;29;20117;-66
2022/07/11 07:17:12;;;;;;;16.58;14.82;;;;;;;-141.48;100.00;69781.59;4977191;29;20525;-66
2022/07/11 07:19:43;;;;;;;16.20;14.93;;;;;;;-141.48;100.00;69781.59;4976881;29;20027;-66
2022/07/11 07:22:16;;;;;;;15.63;14.02;;;;;;;-141.48;100.00;69781.59;4976644;29;20054;-65
2022/07/11 07:24:46;;;;;;;16.15;14.85;;;;;;;-141.48;100.00;69781.59;4976097;29;20041;-65
2022/07/11 07:27:16;;;;;;;16.30;14.60;;;;;;;-141.48;100.00;69781.59;4960138;29;20113;-66
2022/07/11 07:29:47;;;;;;;17.85;16.40;;;;;;;-141.48;100.00;69781.59;4976741;29;20037;-66
2022/07/11 07:32:17;;;;;;;15.13;13.85;;;;;;;-141.48;100.00;69781.59;4978695;29;20052;-66
2022/07/11 07:34:48;;;;;;;17.48;15.77;;;;;;;-141.48;100.00;69781.59;4978583;29;20091;-66
2022/07/11 07:37:18;;;;;;;17.13;15.73;;;;;;;-141.48;100.00;69781.59;4975636;29;20476;-64
2022/07/11 07:39:49;;;;;;;17.70;16.20;;;;;;;-141.48;100.00;69781.59;4974797;29;20113;-65
2022/07/11 07:42:19;;;;;;;16.83;15.23;;;;;;;-141.48;100.00;69781.59;4974183;29;20034;-65
2022/07/11 07:44:50;;;;;;;20.02;18.10;;;;;;;-141.48;100.00;69781.59;4974070;29;20106;-66
2022/07/11 07:47:20;;;;;;;20.67;15.32;;;;;;;-141.48;100.00;69781.59;4974276;29;20430;-65
2022/07/11 07:49:50;;;;;;;17.08;15.38;;;;;;;-141.48;100.00;69781.59;4973661;29;20152;-66
2022/07/11 07:52:21;;;;;;;20.10;15.75;;;;;;;-141.48;100.00;69781.59;4975464;29;20034;-66
2022/07/11 07:54:51;;;;;;;17.05;15.30;;;;;;;-141.48;100.00;69781.59;4958422;29;20381;-62
2022/07/11 07:57:22;;;;;;;14.25;12.98;;;;;;;-141.48;100.00;69781.59;4974219;29;20096;-69
2022/07/11 08:01:34;;;;;;;15.85;14.30;;;;;;;-141.48;100.00;69781.59;4974316;29;20139;-65
2022/07/11 08:02:42;;;;;;;16.80;15.07;;;;;;;-141.48;100.00;69781.59;4974294;29;20531;-65
2022/07/11 08:05:13;;;;;;;12.23;11.02;;;;;;;-141.48;100.00;69781.59;4974510;29;20039;-65
2022/07/11 08:07:44;;;;;;;13.95;12.45;;;;;;;-141.48;100.00;69781.59;4974881;29;20121;-66
2022/07/11 08:10:14;;;;;;;13.90;12.60;;;;;;;-141.48;100.00;69781.59;4974786;29;20118;-64
2022/07/11 08:12:44;;;;;;;13.23;12.23;;;;;;;-141.48;100.00;69781.59;4974544;29;20027;-65
2022/07/11 08:15:15;;;;;;;15.68;14.32;;;;;;;-141.48;100.00;69781.59;4974809;29;20058;-65
2022/07/11 08:17:45;;;;;;;15.25;13.75;;;;;;;-141.48;100.00;69781.59;4974799;29;20031;-65
2022/07/11 08:20:16;;;;;;;19.42;11.80;;;;;;;-141.48;100.00;69781.59;4974552;29;20491;-67
2022/07/11 08:22:46;;;;;;;10.65;9.95;;;;;;;-141.48;100.00;69781.59;4958999;29;20038;-65
2022/07/11 08:25:17;;;;;;;10.18;9.40;;;;;;;-141.48;100.00;69781.59;4958358;29;20399;-65
2022/07/11 08:27:47;;;;;;;13.45;12.32;;;;;;;-141.48;100.00;69781.59;4974736;29;20027;-63
2022/07/11 08:30:17;;;;;;;12.35;10.98;;;;;;;-141.48;100.00;69781.59;4975539;29;20034;-64
2022/07/11 08:32:48;;;;;;;11.35;10.38;;;;;;;-141.48;100.00;69781.59;4959559;29;20026;-65
2022/07/11 08:35:18;;;;;;;15.40;11.25;;;;;;;-141.48;100.00;69781.59;4959004;29;20031;-65
2022/07/11 08:37:49;;;;;;;13.18;11.85;;;;;;;-141.48;100.00;69781.59;4975430;29;20110;-65
2022/07/11 08:40:20;;;;;;;12.95;10.40;;;;;;;-141.48;100.00;69781.59;4958366;29;20081;-65
2022/07/11 08:42:50;;;;;;;12.80;11.88;;;;;;;-141.48;100.00;69781.59;4973713;29;20027;-65
2022/07/11 08:45:28;;;;;;;10.93;10.02;;;;;;;-141.48;100.00;69781.59;4956496;29;20030;-65
2022/07/11 08:48:00;;;;;;;11.98;10.35;;;;;;;-141.48;100.00;69781.59;4973180;29;20054;-64
2022/07/11 08:50:31;;;;;;;9.88;9.18;;;;;;;-141.48;100.00;69781.59;4974338;29;20053;-65
2022/07/11 08:53:05;;;;;;;11.07;10.18;;;;;;;-141.48;100.00;69781.59;4975177;29;20041;-64
2022/07/11 08:55:36;;;;;;;15.50;10.57;;;;;;;-141.48;100.00;69781.59;4974732;29;20396;-65
2022/07/11 08:58:07;;;;;;;10.55;9.82;;;;;;;-141.48;100.00;69781.59;4972800;29;20045;-62
2022/07/11 09:00:38;;;;;;;12.10;11.30;;;;;;;-141.48;100.00;69781.59;4973135;29;20049;-64
2022/07/11 09:03:13;;;;;;;10.57;9.68;;;;;;;-141.48;100.00;69781.59;4956987;29;20027;-65
2022/07/11 09:05:44;;;;;;;12.32;11.23;;;;;;;-141.48;100.00;69781.59;4973200;29;20537;-62
2022/07/11 09:08:15;;;;;;;9.90;9.02;;;;;;;-141.48;100.00;69781.59;4974280;29;20402;-64
2022/07/11 09:10:46;;;;;;;10.45;9.60;;;;;;;-141.48;100.00;69781.59;4973225;29;20038;-64
2022/07/11 09:13:17;;;;;;;12.98;11.05;;;;;;;-141.48;100.00;69781.59;4973672;29;20103;-64
2022/07/11 09:15:48;;;;;;;11.80;10.88;;;;;;;-141.48;100.00;69781.59;4973731;29;20019;-64
2022/07/11 09:18:25;;;;;;;11.38;10.13;;;;;;;-141.48;100.00;69781.59;4973146;29;20050;-64
2022/07/11 09:26:48;;;;;;;9.35;8.75;;;;;;;-141.48;100.00;69781.59;4973904;29;20039;-63
2022/07/11 09:29:24;;;;;;;10.02;9.30;;;;;;;-141.48;100.00;69781.59;4957274;29;20038;-63
2022/07/11 09:31:54;;;;;;;13.98;10.07;;;;;;;-141.48;100.00;69781.59;4972445;29;20030;-64
2022/07/11 09:34:27;;;;;;;8.82;8.25;;;;;;;-141.48;100.00;69781.59;4972099;29;20022;-63
2022/07/11 09:36:57;;;;;;;11.77;10.65;;;;;;;-141.48;100.00;69781.59;4956870;29;20038;-63
2022/07/11 09:39:29;;;;;;;10.40;9.55;;;;;;;-141.48;100.00;69781.59;4972730;29;20035;-64
2022/07/11 09:41:59;;;;;;;10.43;9.43;;;;;;;-141.48;100.00;69781.59;4956645;29;20035;-62
2022/07/11 09:44:33;;;;;;;10.32;9.48;;;;;;;-141.48;100.00;69781.59;4972339;29;20087;-64
2022/07/11 09:47:09;;;;;;;10.98;10.18;;;;;;;-141.48;100.00;69781.59;4956695;29;20030;-64
2022/07/11 09:49:40;;;;;;;18.92;11.45;;;;;;;-141.48;100.00;69781.59;4957465;29;20358;-65
2022/07/11 09:52:16;;;;;;;13.43;12.43;;;;;;;-141.48;100.00;69781.59;4973649;29;20027;-64
2022/07/11 09:55:01;;;;;;;10.35;9.50;;;;;;;-141.48;100.00;69781.59;4956599;29;20035;-65
2022/07/11 09:57:33;;;;;;;13.52;12.45;;;;;;;-141.48;100.00;69781.59;4972279;29;20086;-64
2022/07/11 10:00:07;;;;;;;9.90;9.30;;;;;;;-141.48;100.00;69781.59;4955549;29;20038;-64
2022/07/11 10:02:37;;;;;;;11.93;11.05;;;;;;;-141.48;100.00;69781.59;4971739;29;20034;-64
2022/07/11 10:05:08;;;;;;;12.00;10.85;;;;;;;-141.48;100.00;69781.59;4984871;29;20027;-64
2022/07/11 10:07:39;;;;;;;10.43;9.63;;;;;;;-141.48;100.00;69781.59;4971698;29;20031;-63
2022/07/11 10:10:12;;;;;;;11.80;11.00;;;;;;;-141.48;100.00;69781.59;4971320;29;20410;-64
2022/07/11 10:12:46;;;;;;;13.15;11.80;;;;;;;-141.48;100.00;69781.59;4970644;29;20031;-63
2022/07/11 10:15:22;;;;;;;13.00;11.80;;;;;;;-141.48;100.00;69781.59;4954766;29;20018;-64
2022/07/11 10:18:11;;;;;;;12.52;11.43;;;;;;;-141.48;100.00;69781.59;4954771;29;20501;-65
2022/07/11 10:20:41;;;;;;;12.17;11.37;;;;;;;-141.48;100.00;69781.59;4954573;29;20087;-62
2022/07/11 10:23:38;;;;;;;14.02;12.73;;;;;;;-141.48;100.00;69781.59;4954464;29;20441;-64
2022/07/11 10:26:37;;;;;;;12.32;11.38;;;;;;;-141.48;100.00;69781.59;4952682;29;20043;-64
2022/07/11 10:29:28;;;;;;;;;;;;;;;-141.48;100.00;69781.59;4971014;29;20503;-63
2022/07/11 10:32:10;;;;;;;11.93;10.65;;;;;;;-141.48;100.00;69781.59;4947314;29;19913;-64
2022/07/11 10:34:40;;;;;;;11.88;10.98;;;;;;;-141.48;100.00;69781.59;4983263;24;20035;-64
2022/07/11 10:37:11;;;;;;;10.43;9.52;;;;;;;-141.48;100.00;69781.59;4952369;29;20100;-64
2022/07/11 10:39:58;;;;;;;12.18;11.00;;;;;;;-141.48;100.00;69781.59;4969319;29;20388;-64
2022/07/11 10:42:39;;;;;;;10.60;9.80;;;;;;;-141.48;100.00;69781.59;4970390;29;20444;-64
2022/07/11 10:45:11;;;;;;;13.65;12.10;;;;;;;-141.48;100.00;69781.59;4953504;29;20019;-63
2022/07/11 10:47:43;;;;;;;12.63;11.60;;;;;;;-141.48;100.00;69781.59;4953726;29;20039;-64
2022/07/11 10:50:38;;;;;;;9.43;8.63;;;;;;;-141.48;100.00;69781.59;4970110;29;20446;-65
2022/07/11 10:53:17;;;;;;;10.45;9.77;;;;;;;-141.48;100.00;69781.59;4954073;29;20027;-64
2022/07/11 10:56:15;;;;;;;8.98;8.15;;;;;;;-141.48;100.00;69781.59;4969670;29;20480;-65
2022/07/11 10:59:03;;;;;;;9.63;8.82;;;;;;;-141.48;100.00;69781.59;4970066;29;20450;-64
2022/07/11 11:01:34;;;;;;;9.15;8.48;;;;;;;-141.48;100.00;69781.59;4969561;29;20071;-65
2022/07/11 11:04:42;;;;;;;9.65;8.68;;;;;;;-141.48;100.00;69781.59;4969485;29;20472;-65
2022/07/11 11:07:31;;;;;;;8.02;7.55;;;;;;;-141.48;100.00;69781.59;4969660;29;20039;-65
2022/07/11 11:10:06;;;;;;;;;;;;;;;-141.48;100.00;69781.59;4969681;29;20031;-65
2022/07/11 11:13:04;;;;;;;6.63;6.13;;;;;;;-141.48;100.00;69781.59;4969836;29;19913;-64
2022/07/11 11:15:42;;;;;;;6.30;5.80;;;;;;;-141.48;100.00;69781.59;4969156;29;20026;-64
2022/07/11 11:18:24;;;;;;;7.75;7.15;;;;;;;-141.48;100.00;69781.59;4969685;29;20035;-64
2022/07/11 11:21:01;;;;;;;7.10;6.38;;;;;;;-141.48;100.00;69781.59;4969543;29;20041;-63
2022/07/11 11:23:59;;;;;;;7.35;6.85;;;;;;;-141.48;100.00;69781.59;4969673;29;20045;-64